Accueil
METAR-TAF:

METAR-TAF

Aéroports :

Milan, Italie

Aéroport de Milan Malpensa

latitude: 45-37N, longitude: 008-44E, altitude: 234 m

Observation

Le bulletin a été fait il y a 21 minutes, à 01:20 UTC
Vent 5 kt de nord
Température 10°C
Humidité 87%
Pression 1027 hPa
Visibilité 10 km ou plus
pas de nuages en-dessous de 1500 mètres et pas de cumulonimbus.

METAR: LIMC 170120Z 36005KT CAVOK 10/08 Q1027 NOSIG

Heure: 03:41 (01:41 UTC)

Prévision

Le bulletin a été fait il y a 2 heures et 41 minutes, à 23:00 UTC
Prévision valable du 17 à 00 UTC au 18 à 06 UTC
Vent 5 kt de nord
Visibilité 10 km ou plus
pas de nuages en-dessous de 1500 mètres et pas de cumulonimbus.
Temporairement
du 17 à 02 UTC au 17 à 07 UTC
Visibilité: 4000 m
bancs de brouillard

TAF: LIMC 162300Z 1700/1806 01005KT CAVOK TEMPO 1702/1707 4000 BCFG

Observations et prévisions météorologiques de plus de 4000 aéroports (messages METAR et TAF).

Les stations disponibles sont représentées par des disques jaunes et rouges sur la carte.

Passer la souris dessus pour voir le nom de la station.

Cliquer dessus pour voir les observations et prévisions météorologiques.

Pour changer de carte: cliquez sur les boutons verts avec une croix noire pour zoomer, sur le bouton vert avec un tiret pour effectuer un zoom arrière, ou sur les flèches vertes pour les cartes adjacentes.


METAR-TAF: